Time;durP1;ratioP1;P1;durP2;ratioP2;P2;SDS_P1;SDS_P2;PMS_P1;PMS_P2;Temp;Humidity;BMP_temperature;BMP_pressure;BME280_temperature;BME280_humidity;BME280_pressure;Samples;Min_cycle;Max_cycle;Signal;HPM_P1;HPM_P2
2022/10/27 00:02:19;;;;;;;7.10;3.60;;;;;;;14.71;79.51;102039.97;4796385;29;20034;-86
2022/10/27 00:04:45;;;;;;;6.90;3.20;;;;;;;14.68;79.47;102037.41;4804754;29;20437;-87
2022/10/27 00:07:10;;;;;;;6.22;3.78;;;;;;;14.69;79.43;102038.31;4795948;29;20037;-87
2022/10/27 00:09:35;;;;;;;7.88;3.50;;;;;;;14.62;79.81;102040.31;4785869;29;20034;-86
2022/10/27 00:12:00;;;;;;;7.45;4.00;;;;;;;14.62;79.76;102039.44;4796765;29;20160;-87
2022/10/27 00:14:26;;;;;;;9.65;3.60;;;;;;;14.61;79.84;102033.25;4792582;29;20388;-87
2022/10/27 00:16:53;;;;;;;7.53;4.38;;;;;;;14.53;79.93;102044.19;4795941;29;20031;-87
2022/10/27 00:19:19;;;;;;;8.30;4.22;;;;;;;14.43;81.04;102049.88;4798503;29;20087;-87
2022/10/27 00:21:45;;;;;;;6.25;3.65;;;;;;;14.33;80.56;102043.16;4796959;29;20391;-87
2022/10/27 00:24:10;;;;;;;8.07;4.03;;;;;;;14.32;81.21;102041.44;4772923;29;20036;-87
2022/10/27 00:26:35;;;;;;;6.63;3.92;;;;;;;14.38;80.74;102036.75;4778904;29;20122;-87
2022/10/27 00:29:00;;;;;;;6.22;4.10;;;;;;;14.39;80.22;102037.59;4789846;29;20034;-87
2022/10/27 00:31:26;;;;;;;7.80;4.22;;;;;;;14.41;80.61;102057.94;4797691;29;20117;-87
2022/10/27 00:33:51;;;;;;;6.22;4.43;;;;;;;14.42;80.67;102056.13;4800593;29;20049;-87
2022/10/27 00:36:22;;;;;;;5.93;4.55;;;;;;;14.36;80.44;102054.56;4778639;29;20391;-87
2022/10/27 00:38:48;;;;;;;8.13;4.38;;;;;;;14.45;80.82;102064.84;4776117;29;20035;-87
2022/10/27 00:41:32;;;;;;;6.13;4.53;;;;;;;14.48;79.95;102063.91;4784856;29;20494;-86
2022/10/27 00:43:59;;;;;;;7.72;4.50;;;;;;;14.41;81.23;102059.69;4782071;30;20039;-87
2022/10/27 00:46:35;;;;;;;9.32;4.68;;;;;;;14.32;80.90;102055.59;4798340;29;20482;-86
2022/10/27 00:49:08;;;;;;;6.00;4.00;;;;;;;14.31;80.13;102051.19;4793310;29;20031;-87
2022/10/27 00:51:38;;;;;;;5.95;4.32;;;;;;;14.21;80.59;102048.00;4797885;29;20033;-86
2022/10/27 00:54:03;;;;;;;9.57;4.53;;;;;;;14.34;80.66;102071.50;4779935;29;20027;-87
2022/10/27 00:56:29;;;;;;;8.98;4.10;;;;;;;14.38;80.70;102073.13;4782087;29;20041;-87
2022/10/27 00:58:55;;;;;;;9.63;4.28;;;;;;;14.37;80.62;102069.59;4769810;29;20096;-86
2022/10/27 01:01:20;;;;;;;5.43;3.63;;;;;;;14.37;80.51;102076.72;4791972;29;20065;-87
2022/10/27 01:03:45;;;;;;;7.38;4.15;;;;;;;14.24;81.41;102055.88;4780251;29;20042;-87
2022/10/27 01:06:12;;;;;;;6.43;3.53;;;;;;;14.26;80.75;102056.66;4783376;29;20042;-86
2022/10/27 01:08:38;;;;;;;11.90;4.65;;;;;;;14.36;81.70;102082.94;4804170;29;20031;-85
2022/10/27 01:11:04;;;;;;;7.00;3.55;;;;;;;14.32;80.98;102066.25;4798392;29;20113;-86
2022/10/27 01:13:29;;;;;;;9.45;4.10;;;;;;;14.35;81.46;102062.59;4796327;29;20137;-87
2022/10/27 01:16:13;;;;;;;7.93;4.40;;;;;;;14.42;81.39;102070.31;4787376;29;20035;-87
2022/10/27 01:18:46;;;;;;;5.85;3.72;;;;;;;14.45;81.33;102072.81;4803728;29;20099;-87
2022/10/27 01:21:38;;;;;;;6.93;3.97;;;;;;;14.47;81.58;102086.09;4792480;29;20500;-86
2022/10/27 01:24:24;;;;;;;9.15;4.60;;;;;;;14.49;82.02;102082.47;4783050;29;20035;-87
2022/10/27 01:26:56;;;;;;;7.72;3.92;;;;;;;14.49;81.56;102082.47;4793822;29;20496;-87
2022/10/27 01:29:52;;;;;;;8.27;4.40;;;;;;;14.62;80.67;102090.88;4797686;29;20095;-86
2022/10/27 01:32:36;;;;;;;8.38;3.88;;;;;;;14.57;81.86;102092.84;4794719;29;20580;-86
2022/10/27 01:35:12;;;;;;;6.72;3.97;;;;;;;14.55;81.69;102081.41;4803594;29;20092;-87
2022/10/27 01:37:45;;;;;;;5.65;3.60;;;;;;;14.51;81.17;102077.13;4773138;30;20127;-86
2022/10/27 01:40:31;;;;;;;10.20;4.07;;;;;;;14.41;81.68;102087.19;4782333;29;20063;-86
2022/10/27 01:43:06;;;;;;;5.80;3.83;;;;;;;14.48;81.28;102080.75;4788955;29;20443;-86
2022/10/27 01:45:34;;;;;;;9.57;4.57;;;;;;;14.54;81.49;102087.63;4791412;29;20038;-86
2022/10/27 01:48:00;;;;;;;7.10;3.90;;;;;;;14.48;81.47;102086.06;4775125;30;20027;-87
2022/10/27 01:50:28;;;;;;;10.25;3.35;;;;;;;14.52;81.02;102084.16;4797302;29;20369;-86
2022/10/27 01:52:54;;;;;;;7.95;3.67;;;;;;;14.50;80.32;102088.66;4790619;29;20042;-87
2022/10/27 01:55:25;;;;;;;6.15;3.35;;;;;;;14.47;79.83;102086.09;4790854;29;20033;-87
2022/10/27 01:57:51;;;;;;;7.85;3.58;;;;;;;14.39;79.58;102082.84;4791556;29;20085;-87
2022/10/27 02:00:16;;;;;;;4.40;3.50;;;;;;;14.28;80.33;102065.47;4800703;29;20031;-86
2022/10/27 02:02:48;;;;;;;6.60;3.72;;;;;;;14.17;81.13;102049.00;4799380;29;20292;-85
2022/10/27 02:05:31;;;;;;;6.27;3.80;;;;;;;14.35;81.37;102070.56;4773724;29;20557;-86
2022/10/27 02:08:05;;;;;;;8.50;3.83;;;;;;;14.31;81.19;102067.13;4797404;29;20284;-86
2022/10/27 02:10:38;;;;;;;8.13;4.13;;;;;;;14.30;81.43;102079.56;4788788;29;20096;-86
2022/10/27 02:13:03;;;;;;;9.65;3.83;;;;;;;14.19;82.34;102055.16;4801091;29;20033;-87
2022/10/27 02:15:36;;;;;;;7.60;4.13;;;;;;;14.25;82.32;102078.00;4793275;29;20035;-86
2022/10/27 02:18:20;;;;;;;9.63;4.18;;;;;;;14.21;82.79;102066.59;4797283;29;20523;-87
2022/10/27 02:20:49;;;;;;;7.95;3.90;;;;;;;14.27;82.82;102076.19;4789894;29;20031;-86
2022/10/27 02:23:17;;;;;;;8.38;4.05;;;;;;;14.19;81.96;102055.16;4778833;29;20048;-86
2022/10/27 02:26:01;;;;;;;6.45;3.53;;;;;;;14.45;81.47;102071.97;4791977;29;20038;-86
2022/10/27 02:28:33;;;;;;;10.85;3.97;;;;;;;14.19;81.86;102044.53;4778574;29;20031;-86
2022/10/27 02:31:00;;;;;;;7.55;3.92;;;;;;;14.22;81.77;102041.78;4794823;29;20057;-86
2022/10/27 02:33:25;;;;;;;7.03;3.80;;;;;;;14.22;82.53;102060.38;4786772;29;20570;-87
2022/10/27 02:35:52;;;;;;;10.40;4.05;;;;;;;14.13;82.33;102054.50;4790851;29;20041;-87
2022/10/27 02:38:17;;;;;;;7.53;3.97;;;;;;;14.10;81.88;102047.50;4790994;29;20038;-88
2022/10/27 02:40:42;;;;;;;6.40;4.10;;;;;;;14.12;82.48;102048.31;4774701;29;20395;-86
2022/10/27 02:43:08;;;;;;;11.02;4.50;;;;;;;14.11;82.08;102045.72;4780500;29;20069;-87
2022/10/27 02:45:33;;;;;;;5.45;4.32;;;;;;;14.06;82.01;102051.19;4797392;29;20031;-86
2022/10/27 02:47:58;;;;;;;6.80;4.10;;;;;;;14.06;82.79;102048.53;4778493;29;20561;-87
2022/10/27 02:50:23;;;;;;;10.13;4.40;;;;;;;14.17;82.95;102059.66;4788629;29;20047;-86
2022/10/27 02:52:49;;;;;;;6.90;4.15;;;;;;;14.06;82.32;102039.69;4797313;29;20031;-86
2022/10/27 02:55:14;;;;;;;7.00;4.13;;;;;;;14.07;83.24;102036.09;4771730;30;20039;-86
2022/10/27 02:57:39;;;;;;;9.88;4.20;;;;;;;13.99;83.36;102029.28;4788391;29;20067;-86
2022/10/27 03:00:06;;;;;;;8.63;4.40;;;;;;;13.99;82.39;102033.75;4792637;29;20073;-86
2022/10/27 03:02:31;;;;;;;6.32;3.83;;;;;;;14.08;82.94;102046.69;4804639;29;20560;-86
2022/10/27 03:04:56;;;;;;;10.05;3.97;;;;;;;14.03;82.42;102048.63;4800527;29;20031;-86
2022/10/27 03:07:22;;;;;;;6.55;4.07;;;;;;;13.92;82.34;102029.56;4788017;29;20084;-86
2022/10/27 03:09:47;;;;;;;8.98;3.70;;;;;;;13.86;81.47;102021.81;4788777;29;20066;-86
2022/10/27 03:12:13;;;;;;;7.20;3.83;;;;;;;13.97;82.96;102028.47;4789055;29;20030;-86
2022/10/27 03:14:38;;;;;;;6.93;4.05;;;;;;;13.83;82.21;102029.88;4798926;29;20116;-86
2022/10/27 03:17:03;;;;;;;6.05;3.40;;;;;;;13.71;82.45;102016.09;4798973;29;20119;-86
2022/10/27 03:19:29;;;;;;;6.43;3.47;;;;;;;13.71;82.12;102005.47;4793339;29;20046;-86
2022/10/27 03:21:54;;;;;;;7.53;4.00;;;;;;;13.73;81.59;102008.91;4804187;29;20476;-86
2022/10/27 03:24:19;;;;;;;5.80;3.75;;;;;;;13.81;81.56;102026.41;4777584;29;20034;-86
2022/10/27 03:26:44;;;;;;;4.82;4.03;;;;;;;13.71;82.63;102016.09;4794901;29;20087;-86
2022/10/27 03:29:10;;;;;;;9.90;4.30;;;;;;;13.74;83.15;102015.09;4799681;29;20027;-86
2022/10/27 03:31:35;;;;;;;7.35;3.92;;;;;;;13.67;83.44;101995.00;4799499;29;20027;-86
2022/10/27 03:34:00;;;;;;;8.68;4.13;;;;;;;13.65;83.59;102003.00;4801093;29;20511;-85
2022/10/27 03:36:26;;;;;;;8.32;4.20;;;;;;;13.60;83.06;101999.63;4787537;30;20485;-86
2022/10/27 03:38:53;;;;;;;8.27;4.25;;;;;;;13.68;84.04;102018.84;4759181;30;20130;-86
2022/10/27 03:41:18;;;;;;;6.90;4.10;;;;;;;13.63;84.02;101996.88;4779024;29;20556;-87
2022/10/27 03:43:43;;;;;;;5.50;3.85;;;;;;;13.71;83.92;102005.47;4786963;29;20285;-86
2022/10/27 03:46:09;;;;;;;8.18;4.05;;;;;;;13.76;83.19;102018.59;4779537;30;20062;-86
2022/10/27 03:48:35;;;;;;;9.27;4.13;;;;;;;13.60;83.73;101985.47;4786959;29;20024;-87
2022/10/27 03:51:00;;;;;;;8.88;4.13;;;;;;;13.71;83.01;101999.28;4770760;30;20392;-86
2022/10/27 03:53:25;;;;;;;5.65;3.92;;;;;;;13.59;83.23;101997.03;4785621;29;20038;-86
2022/10/27 03:55:51;;;;;;;6.35;4.00;;;;;;;13.53;84.08;102000.78;4788799;29;20407;-86
2022/10/27 03:58:17;;;;;;;7.40;4.05;;;;;;;13.59;83.76;102011.19;4804861;29;20046;-86
2022/10/27 04:00:43;;;;;;;9.75;4.60;;;;;;;13.66;84.43;102001.19;4796544;29;20023;-86
2022/10/27 04:03:08;;;;;;;9.27;4.68;;;;;;;13.53;84.47;101996.31;4782684;29;20038;-86
2022/10/27 04:05:33;;;;;;;9.80;4.53;;;;;;;13.50;83.96;101985.78;4770824;30;20034;-86
2022/10/27 04:07:59;;;;;;;11.32;4.78;;;;;;;13.51;84.47;101991.97;4782909;29;20387;-86
2022/10/27 04:10:25;;;;;;;7.70;4.70;;;;;;;13.59;84.22;102007.66;4794878;29;20038;-86
2022/10/27 04:12:55;;;;;;;6.30;4.30;;;;;;;13.56;84.31;102005.97;4783387;29;20027;-86
2022/10/27 04:15:23;;;;;;;7.95;4.93;;;;;;;13.59;84.41;102016.50;4795847;29;20039;-87
2022/10/27 04:17:52;;;;;;;8.23;5.15;;;;;;;13.62;84.22;102018.19;4791922;29;20047;-86
2022/10/27 04:20:17;;;;;;;11.30;5.07;;;;;;;13.50;84.60;102006.19;4778432;29;20740;-86
2022/10/27 04:22:42;;;;;;;17.55;6.03;;;;;;;13.50;84.70;102014.16;4772292;29;20031;-87
2022/10/27 04:25:08;;;;;;;7.45;5.13;;;;;;;13.54;84.46;102015.78;4796196;29;20030;-86
2022/10/27 04:27:33;;;;;;;12.88;5.60;;;;;;;13.57;84.79;102028.09;4784644;30;20054;-86
2022/10/27 04:29:58;;;;;;;9.20;5.57;;;;;;;13.55;84.35;102024.63;4778678;29;20506;-86
2022/10/27 04:32:24;;;;;;;7.63;5.15;;;;;;;13.54;84.33;102029.06;4803620;29;20038;-86
2022/10/27 04:34:49;;;;;;;13.50;5.75;;;;;;;13.40;84.61;102015.38;4778969;29;20092;-86
2022/10/27 04:37:14;;;;;;;11.48;5.72;;;;;;;13.50;84.46;102024.78;4767287;30;20389;-86
2022/10/27 04:39:39;;;;;;;9.00;4.70;;;;;;;13.40;84.36;102008.28;4788408;29;20035;-86
2022/10/27 04:42:04;;;;;;;8.65;5.63;;;;;;;13.46;84.49;102017.81;4777671;29;20035;-86
2022/10/27 04:44:30;;;;;;;10.15;5.18;;;;;;;13.51;84.76;102026.50;4777951;29;20389;-85
2022/10/27 04:46:55;;;;;;;10.25;5.35;;;;;;;13.54;84.54;102023.75;4798384;29;20027;-86
2022/10/27 04:49:20;;;;;;;8.43;5.07;;;;;;;13.47;84.09;102023.09;4779520;29;20045;-86
2022/10/27 04:51:46;;;;;;;9.10;5.13;;;;;;;13.50;84.61;102038.94;4791931;29;20038;-86
2022/10/27 04:54:11;;;;;;;8.38;4.78;;;;;;;13.40;84.10;102024.22;4794646;29;20023;-86
2022/10/27 04:56:36;;;;;;;12.98;6.63;;;;;;;13.43;84.77;102034.75;4798150;29;20564;-86
2022/10/27 04:59:01;;;;;;;7.82;4.32;;;;;;;13.39;84.27;102022.50;4795273;29;20035;-86
2022/10/27 05:01:27;;;;;;;7.15;4.75;;;;;;;13.52;83.78;102037.09;4793700;29;20084;-86
2022/10/27 05:03:52;;;;;;;8.68;5.07;;;;;;;13.54;84.18;102037.06;4803866;29;20081;-87
2022/10/27 05:06:17;;;;;;;12.75;5.53;;;;;;;13.56;83.54;102029.88;4804191;29;20387;-86
2022/10/27 05:08:42;;;;;;;8.38;4.78;;;;;;;13.54;83.23;102026.41;4794569;29;20027;-86
2022/10/27 05:11:08;;;;;;;7.30;4.88;;;;;;;13.59;83.25;102035.09;4799637;29;20031;-86
2022/10/27 05:13:33;;;;;;;9.85;5.38;;;;;;;13.53;83.86;102030.00;4781226;29;20086;-87
2022/10/27 05:16:00;;;;;;;11.43;5.15;;;;;;;13.63;84.22;102034.09;4797744;29;20550;-85
2022/10/27 05:18:25;;;;;;;9.38;5.05;;;;;;;13.52;84.35;102022.94;4785964;29;20115;-86
2022/10/27 05:20:50;;;;;;;8.55;5.45;;;;;;;13.53;84.20;102027.34;4794775;29;20442;-86
2022/10/27 05:23:15;;;;;;;6.68;5.20;;;;;;;13.51;84.27;102023.84;4787314;29;20031;-87
2022/10/27 05:25:41;;;;;;;6.20;5.25;;;;;;;13.53;84.33;102020.25;4787404;29;20091;-85
2022/10/27 05:28:08;;;;;;;8.00;5.20;;;;;;;13.62;84.21;102037.66;4803705;29;20030;-86
2022/10/27 05:30:33;;;;;;;7.82;5.18;;;;;;;13.48;84.49;102013.34;4794182;29;20099;-85
2022/10/27 05:32:59;;;;;;;10.48;5.38;;;;;;;13.49;84.18;102020.41;4799601;29;20488;-87
2022/10/27 05:35:24;;;;;;;7.07;4.90;;;;;;;13.48;84.22;102018.66;4791512;29;20556;-86
2022/10/27 05:37:50;;;;;;;9.63;5.05;;;;;;;13.48;84.21;102023.97;4786361;29;20031;-86
2022/10/27 05:40:15;;;;;;;7.38;4.63;;;;;;;13.42;84.75;102018.84;4792485;29;20038;-87
2022/10/27 05:42:52;;;;;;;8.60;4.90;;;;;;;13.62;84.04;102035.00;4794199;29;20030;-87
2022/10/27 05:45:18;;;;;;;5.22;4.22;;;;;;;13.56;83.91;102032.53;4781978;30;20035;-86
2022/10/27 05:47:44;;;;;;;8.85;4.93;;;;;;;13.61;83.76;102033.25;4778344;29;20037;-86
2022/10/27 05:50:09;;;;;;;6.75;5.07;;;;;;;13.55;83.56;102016.66;4783369;29;20323;-86
2022/10/27 05:52:34;;;;;;;11.02;5.43;;;;;;;13.52;83.59;102009.66;4801634;29;20031;-86
2022/10/27 05:54:59;;;;;;;6.97;4.70;;;;;;;13.62;84.10;102035.00;4775422;29;20183;-85
2022/10/27 05:57:25;;;;;;;9.27;4.75;;;;;;;13.52;83.51;102015.84;4777872;30;20487;-86
2022/10/27 05:59:50;;;;;;;5.82;4.38;;;;;;;13.51;82.99;102011.44;4797757;29;20564;-87
2022/10/27 06:02:16;;;;;;;7.63;4.43;;;;;;;13.52;83.51;102013.19;4782953;29;20552;-86
2022/10/27 06:04:41;;;;;;;8.95;4.85;;;;;;;13.57;83.28;102022.78;4799735;29;20031;-86
2022/10/27 06:07:06;;;;;;;7.88;4.45;;;;;;;13.52;83.72;102021.16;4769170;30;20024;-86
2022/10/27 06:09:31;;;;;;;7.72;5.03;;;;;;;13.44;84.00;102006.41;4784421;29;20054;-86
2022/10/27 06:11:57;;;;;;;7.07;4.78;;;;;;;13.50;83.90;102017.69;4779911;29;20030;-88
2022/10/27 06:14:22;;;;;;;8.98;4.97;;;;;;;13.47;84.37;102007.13;4774692;29;20117;-86
2022/10/27 06:16:47;;;;;;;7.93;5.15;;;;;;;13.48;84.04;102014.22;4803389;29;20034;-86
2022/10/27 06:19:12;;;;;;;5.50;4.38;;;;;;;13.51;84.19;102023.84;4771468;30;20140;-87
2022/10/27 06:21:38;;;;;;;8.38;4.78;;;;;;;13.49;84.46;102015.09;4784316;30;20035;-86
2022/10/27 06:24:03;;;;;;;8.48;5.13;;;;;;;13.48;84.01;101992.97;4779874;29;20106;-86
2022/10/27 06:26:28;;;;;;;6.40;4.45;;;;;;;13.56;83.95;102013.94;4769638;30;20592;-86
2022/10/27 06:28:54;;;;;;;7.20;4.38;;;;;;;13.51;83.82;101999.94;4785253;29;20168;-85
2022/10/27 06:31:19;;;;;;;10.98;4.45;;;;;;;13.58;83.48;102008.59;4785006;29;20031;-87
2022/10/27 06:33:44;;;;;;;6.78;4.53;;;;;;;13.56;82.93;101995.34;4766900;29;20180;-86
2022/10/27 06:36:10;;;;;;;7.15;3.83;;;;;;;13.51;83.24;101991.97;4780100;30;20088;-87
2022/10/27 06:38:35;;;;;;;5.93;4.00;;;;;;;13.57;83.19;101999.75;4759275;30;20024;-87
2022/10/27 06:41:00;;;;;;;6.45;4.70;;;;;;;13.49;82.98;101991.16;4775790;29;20038;-87
2022/10/27 06:43:25;;;;;;;7.10;4.30;;;;;;;13.50;83.03;101991.09;4780277;29;20028;-86
2022/10/27 06:45:51;;;;;;;6.00;3.95;;;;;;;13.53;82.97;101992.81;4778411;30;20413;-86
2022/10/27 06:48:16;;;;;;;5.25;4.28;;;;;;;13.43;82.60;101984.28;4774352;30;20035;-87
2022/10/27 06:50:41;;;;;;;7.55;3.70;;;;;;;13.41;82.45;101986.09;4771028;29;20453;-86
2022/10/27 06:53:07;;;;;;;5.55;4.07;;;;;;;13.40;82.60;101979.06;4780832;30;20035;-87
2022/10/27 06:55:32;;;;;;;8.00;4.25;;;;;;;13.48;82.38;101989.44;4778069;30;20147;-87
2022/10/27 06:57:58;;;;;;;7.72;3.50;;;;;;;13.51;82.45;101995.50;4785480;29;20023;-86
2022/10/27 07:00:24;;;;;;;7.57;4.10;;;;;;;13.51;82.36;101976.03;4774133;30;20165;-86
2022/10/27 07:02:49;;;;;;;9.77;4.68;;;;;;;13.54;82.10;101970.63;4801220;29;20059;-86
2022/10/27 07:05:15;;;;;;;4.47;3.70;;;;;;;13.73;81.55;101986.78;4780805;29;20070;-86
2022/10/27 07:07:45;;;;;;;6.38;4.07;;;;;;;13.91;81.38;101993.25;4781745;29;20495;-86
2022/10/27 07:10:10;;;;;;;6.55;4.28;;;;;;;13.91;81.21;101982.63;4778925;30;20043;-87
2022/10/27 07:12:35;;;;;;;4.65;3.75;;;;;;;13.85;80.98;101978.41;4774228;30;20022;-86
2022/10/27 07:15:01;;;;;;;6.65;4.30;;;;;;;13.94;80.90;101988.72;4780809;29;20102;-87
2022/10/27 07:17:26;;;;;;;6.47;4.03;;;;;;;14.00;80.44;101980.50;4781895;29;20039;-86
2022/10/27 07:19:51;;;;;;;8.07;4.03;;;;;;;14.14;80.94;101995.97;4778431;29;20103;-86
2022/10/27 07:22:17;;;;;;;6.95;4.00;;;;;;;14.23;79.84;102000.06;4804930;29;20121;-87
2022/10/27 07:24:42;;;;;;;6.45;4.57;;;;;;;14.21;80.47;102015.19;4782317;29;20031;-87
2022/10/27 07:27:07;;;;;;;5.20;4.13;;;;;;;14.19;80.24;101996.66;4800772;29;20440;-87
2022/10/27 07:29:33;;;;;;;8.32;3.75;;;;;;;14.25;79.79;101993.75;4805518;29;20027;-86
2022/10/27 07:31:58;;;;;;;7.10;3.72;;;;;;;14.32;80.26;101985.56;4804396;29;20372;-88
2022/10/27 07:34:23;;;;;;;11.27;4.22;;;;;;;14.37;79.55;101978.28;4798986;29;20035;-86
2022/10/27 07:36:48;;;;;;;5.10;3.72;;;;;;;14.37;78.65;101968.50;4798722;29;20118;-86
2022/10/27 07:39:14;;;;;;;8.15;3.83;;;;;;;14.44;79.12;101963.81;4778152;29;20027;-86
2022/10/27 07:41:39;;;;;;;6.18;3.97;;;;;;;14.72;79.11;101990.25;4774100;30;20252;-86
2022/10/27 07:44:04;;;;;;;6.15;3.70;;;;;;;14.82;78.54;101986.28;4773714;29;20426;-86
2022/10/27 07:46:30;;;;;;;7.13;3.40;;;;;;;14.97;78.22;101987.50;4793266;29;20042;-86
2022/10/27 07:48:55;;;;;;;6.95;4.20;;;;;;;15.03;77.00;101980.13;4802550;29;20033;-86
2022/10/27 07:51:20;;;;;;;6.10;3.22;;;;;;;15.28;77.39;101992.44;4776231;29;20031;-86
2022/10/27 07:53:46;;;;;;;6.20;3.45;;;;;;;15.59;75.42;101984.00;4781513;29;20149;-85
2022/10/27 07:56:11;;;;;;;6.38;3.53;;;;;;;16.07;74.16;101993.50;4792894;29;20032;-87
2022/10/27 07:58:36;;;;;;;8.05;3.55;;;;;;;16.71;70.79;101998.53;4804931;29;20110;-86
2022/10/27 08:01:03;;;;;;;4.85;3.25;;;;;;;17.33;69.23;102002.66;4795274;29;20042;-87
2022/10/27 08:03:30;;;;;;;4.35;2.97;;;;;;;17.40;67.49;102002.38;4804321;29;20038;-86
2022/10/27 08:05:59;;;;;;;6.10;3.20;;;;;;;17.48;68.59;102006.38;4792665;29;20467;-86
2022/10/27 08:08:24;;;;;;;7.25;2.88;;;;;;;17.53;68.01;101987.41;4782067;29;20031;-86
2022/10/27 08:10:50;;;;;;;8.30;2.80;;;;;;;17.78;66.27;101993.28;4791770;29;20401;-86
2022/10/27 08:13:16;;;;;;;4.45;2.90;;;;;;;17.54;65.74;101991.84;4804254;29;20046;-87
2022/10/27 08:15:41;;;;;;;6.00;2.85;;;;;;;17.37;66.66;101992.69;4776326;29;20118;-86
2022/10/27 08:18:08;;;;;;;5.47;2.97;;;;;;;17.27;67.64;101986.94;4804824;29;20108;-86
2022/10/27 08:20:38;;;;;;;6.68;2.70;;;;;;;17.19;67.66;101989.13;4792241;29;20035;-85
2022/10/27 08:23:05;;;;;;;7.28;3.05;;;;;;;17.50;66.36;102000.97;4787581;29;20042;-86
2022/10/27 08:25:31;;;;;;;6.13;2.97;;;;;;;18.20;64.98;101983.94;4792511;29;20451;-86
2022/10/27 08:27:57;;;;;;;3.92;2.53;;;;;;;18.17;64.47;101977.88;4788470;29;20027;-86
2022/10/27 08:30:25;;;;;;;7.30;2.67;;;;;;;18.37;64.23;101983.00;4794627;29;20443;-86
2022/10/27 08:32:54;;;;;;;5.80;2.45;;;;;;;18.85;62.91;101997.34;4780171;29;20081;-86
2022/10/27 08:35:20;;;;;;;4.85;2.70;;;;;;;19.25;60.79;101973.59;4781994;29;20055;-86
2022/10/27 08:37:45;;;;;;;6.40;2.95;;;;;;;19.91;58.25;101983.09;4778363;29;20535;-85
2022/10/27 08:40:10;;;;;;;3.47;2.50;;;;;;;20.77;56.63;101986.66;4781944;29;20035;-85
2022/10/27 08:42:39;;;;;;;3.17;2.67;;;;;;;21.79;52.23;101985.16;4790250;29;20031;-86
2022/10/27 08:45:10;;;;;;;5.43;2.85;;;;;;;22.18;52.27;101990.59;4797949;29;20039;-85
2022/10/27 08:47:36;;;;;;;4.03;2.50;;;;;;;22.88;49.47;101969.31;4794717;29;20038;-86
2022/10/27 08:50:18;;;;;;;5.45;2.88;;;;;;;22.97;50.65;101975.88;4797672;29;20403;-85
2022/10/27 08:52:55;;;;;;;4.20;2.50;;;;;;;23.46;48.76;101970.34;4780196;29;20360;-86
2022/10/27 08:55:28;;;;;;;8.10;2.83;;;;;;;23.40;48.54;101971.66;4790627;29;20084;-85
2022/10/27 08:58:01;;;;;;;4.18;2.50;;;;;;;23.01;49.71;101963.91;4791623;29;20039;-85
2022/10/27 09:00:32;;;;;;;3.70;2.10;;;;;;;22.22;50.56;101952.56;4800113;29;20483;-86
2022/10/27 09:03:00;;;;;;;3.60;2.28;;;;;;;21.72;51.84;101967.72;4801785;29;20452;-86
2022/10/27 09:05:34;;;;;;;3.03;2.50;;;;;;;21.89;51.99;101963.84;4794701;29;20035;-86
2022/10/27 09:08:14;;;;;;;6.90;2.47;;;;;;;22.71;51.16;101951.69;4781738;29;20392;-85
2022/10/27 09:10:41;;;;;;;4.68;2.45;;;;;;;23.41;47.84;101941.00;4779728;29;20045;-86
2022/10/27 09:13:44;;;;;;;4.55;2.30;;;;;;;22.90;49.90;101935.91;4792867;29;20487;-86
2022/10/27 09:16:16;;;;;;;3.35;2.20;;;;;;;22.55;50.00;101922.28;4775601;29;20026;-86
2022/10/27 09:19:03;;;;;;;7.40;2.63;;;;;;;22.84;50.74;101930.91;4792470;29;20086;-86
2022/10/27 09:21:32;;;;;;;4.05;1.80;;;;;;;23.04;47.82;101939.41;4792306;29;20388;-86
2022/10/27 09:24:04;;;;;;;7.05;2.13;;;;;;;22.63;48.73;101932.53;4803050;29;20384;-86
2022/10/27 09:26:32;;;;;;;4.20;2.20;;;;;;;22.80;48.42;101918.66;4795097;29;20031;-86
2022/10/27 09:29:02;;;;;;;4.05;2.05;;;;;;;22.74;48.84;101920.94;4800856;29;20508;-87
2022/10/27 09:31:54;;;;;;;4.65;2.30;;;;;;;22.73;50.36;101938.09;4784166;29;20038;-86
2022/10/27 09:34:32;;;;;;;5.00;2.10;;;;;;;22.74;47.98;101931.72;4781657;29;20039;-86
2022/10/27 09:36:58;;;;;;;2.38;1.77;;;;;;;22.64;49.23;101923.44;4784793;29;20027;-87
2022/10/27 09:39:23;;;;;;;2.88;1.83;;;;;;;22.60;49.83;101913.88;4777673;29;20099;-87
2022/10/27 09:41:49;;;;;;;3.25;1.83;;;;;;;22.77;50.03;101928.81;4788420;29;20059;-87
2022/10/27 09:44:20;;;;;;;5.22;2.15;;;;;;;22.50;49.41;101915.53;4791483;29;20035;-86
2022/10/27 09:46:52;;;;;;;2.97;2.17;;;;;;;22.66;50.08;101926.88;4789272;29;20031;-86
2022/10/27 09:49:20;;;;;;;3.58;1.98;;;;;;;22.76;48.52;101900.13;4769332;30;20035;-86
2022/10/27 09:51:51;;;;;;;4.93;2.15;;;;;;;22.97;48.72;101901.22;4788166;29;20113;-86
2022/10/27 09:54:29;;;;;;;2.72;1.90;;;;;;;23.53;48.78;101896.00;4793399;29;20035;-86
2022/10/27 09:57:00;;;;;;;2.97;1.95;;;;;;;24.94;46.03;101895.41;4798168;29;20032;-86
2022/10/27 09:59:25;;;;;;;3.47;1.98;;;;;;;26.42;41.57;101896.00;4784847;29;20035;-86
2022/10/27 10:01:56;;;;;;;4.00;2.05;;;;;;;26.57;39.50;101901.06;4803672;29;20171;-86
2022/10/27 10:04:25;;;;;;;4.13;2.20;;;;;;;27.42;39.22;101911.28;4792493;29;20070;-85
2022/10/27 10:06:53;;;;;;;4.97;1.67;;;;;;;28.55;38.02;101915.75;4800405;29;20035;-86
2022/10/27 10:09:24;;;;;;;5.72;2.38;;;;;;;29.13;37.18;101920.75;4784576;29;20050;-86
2022/10/27 10:11:50;;;;;;;5.53;1.88;;;;;;;29.49;35.75;101907.94;4788282;29;20039;-86
2022/10/27 10:14:21;;;;;;;2.35;1.70;;;;;;;29.15;36.75;101903.28;4800596;29;20035;-86
2022/10/27 10:16:47;;;;;;;4.47;1.80;;;;;;;28.85;35.96;101901.75;4780422;29;20519;-85
2022/10/27 10:19:17;;;;;;;2.47;1.67;;;;;;;28.29;36.66;101891.94;4794321;29;20035;-86
2022/10/27 10:22:00;;;;;;;5.72;1.85;;;;;;;28.55;37.25;101896.69;4791661;29;20035;-86
2022/10/27 10:24:38;;;;;;;4.03;1.45;;;;;;;27.99;38.12;101889.53;4788118;29;20552;-86
2022/10/27 10:27:05;;;;;;;5.05;1.75;;;;;;;26.90;39.01;101897.09;4779194;30;20212;-86
2022/10/27 10:29:33;;;;;;;5.45;1.73;;;;;;;26.02;41.18;101896.03;4784427;29;20055;-86
2022/10/27 10:32:12;;;;;;;3.67;1.60;;;;;;;25.55;43.04;101884.78;4798894;29;20037;-86
2022/10/27 10:34:39;;;;;;;4.32;1.38;;;;;;;24.77;42.98;101887.88;4792982;29;20039;-86
2022/10/27 10:37:41;;;;;;;5.88;1.70;;;;;;;24.25;46.00;101892.13;4790066;29;20127;-86
2022/10/27 10:40:12;;;;;;;3.00;1.40;;;;;;;24.30;45.78;101885.38;4795762;29;20071;-86
2022/10/27 10:42:38;;;;;;;3.63;1.20;;;;;;;24.09;46.06;101890.66;4794595;29;20292;-87
2022/10/27 10:45:10;;;;;;;3.83;1.33;;;;;;;24.17;45.33;101879.25;4774143;29;20074;-86
2022/10/27 10:47:36;;;;;;;8.53;1.90;;;;;;;23.94;46.05;101864.91;4797799;29;20381;-86
2022/10/27 10:50:02;;;;;;;3.05;1.60;;;;;;;24.03;45.99;101866.00;4773196;29;20042;-87
2022/10/27 10:52:34;;;;;;;3.95;1.40;;;;;;;24.31;46.63;101867.31;4805960;29;20039;-86
2022/10/27 10:55:06;;;;;;;3.58;1.30;;;;;;;25.10;45.15;101879.63;4775856;29;20031;-86
2022/10/27 10:57:42;;;;;;;1.95;1.50;;;;;;;25.23;44.16;101857.81;4802815;29;20558;-86
2022/10/27 11:00:14;;;;;;;2.80;1.30;;;;;;;25.21;43.71;101869.75;4802704;29;20034;-86
2022/10/27 11:02:40;;;;;;;3.35;1.20;;;;;;;24.89;44.35;101857.06;4804485;29;20058;-87
2022/10/27 11:05:13;;;;;;;1.40;1.30;;;;;;;24.30;46.34;101868.31;4782032;29;20452;-87
2022/10/27 11:07:39;;;;;;;3.05;1.48;;;;;;;23.78;46.11;101857.19;4793940;29;20062;-86
2022/10/27 11:10:16;;;;;;;4.03;1.58;;;;;;;23.72;47.30;101865.75;4783741;29;20034;-86
2022/10/27 11:12:59;;;;;;;4.82;1.50;;;;;;;23.82;48.48;101846.97;4787076;29;20071;-86
2022/10/27 11:15:34;;;;;;;4.55;1.50;;;;;;;23.84;47.29;101855.81;4779923;29;20042;-86
2022/10/27 11:18:17;;;;;;;4.53;1.50;;;;;;;24.13;47.20;101861.56;4799613;29;20047;-86
2022/10/27 11:20:46;;;;;;;4.53;1.73;;;;;;;23.87;46.76;101856.41;4778717;29;20119;-86
2022/10/27 11:23:19;;;;;;;3.40;1.52;;;;;;;23.56;48.75;101860.69;4797438;29;20035;-86
2022/10/27 11:25:45;;;;;;;4.70;1.70;;;;;;;23.16;49.19;101841.34;4783435;29;20074;-86
2022/10/27 11:28:28;;;;;;;3.80;1.50;;;;;;;23.04;50.74;101842.28;4796372;29;20031;-86
2022/10/27 11:31:08;;;;;;;6.65;1.73;;;;;;;23.00;51.15;101836.28;4779795;29;20034;-86